Time;durP1;ratioP1;P1;durP2;ratioP2;P2;SDS_P1;SDS_P2;PMS_P1;PMS_P2;Temp;Humidity;BMP_temperature;BMP_pressure;BME280_temperature;BME280_humidity;BME280_pressure;Samples;Min_cycle;Max_cycle;Signal;HPM_P1;HPM_P2
2023/01/17 00:12:04;;;;;;;;;;;1.90;99.90;;;;;;4958948;28;19926;-71
2023/01/17 00:14:33;;;;;;;;;;;2.00;99.90;;;;;;5042855;28;19928;-72
2023/01/17 00:17:02;;;;;;;;;;;1.90;99.90;;;;;;5076480;28;20382;-72
2023/01/17 01:33:36;;;;;;;;;;;1.80;99.90;;;;;;5103368;28;19928;-72
2023/01/17 01:36:06;;;;;;;;;;;1.80;99.90;;;;;;5102543;28;20516;-72
2023/01/17 01:38:37;;;;;;;;;;;1.80;99.90;;;;;;5089516;28;20507;-71
2023/01/17 01:41:06;;;;;;;;;;;1.80;99.90;;;;;;5089883;28;20135;-73
2023/01/17 01:43:52;;;;;;;;;;;1.80;99.90;;;;;;5063349;28;19947;-72
2023/01/17 01:46:24;;;;;;;;;;;1.70;99.90;;;;;;5089501;28;19971;-72
2023/01/17 01:48:54;;;;;;;;;;;1.70;99.90;;;;;;5087512;28;20010;-73
2023/01/17 01:51:38;;;;;;;;;;;1.70;99.90;;;;;;5065848;28;19970;-73
2023/01/17 01:54:11;;;;;;;;;;;1.70;99.90;;;;;;5095338;28;19924;-72
2023/01/17 01:56:40;;;;;;;;;;;1.60;99.90;;;;;;5061130;28;19935;-72
2023/01/17 01:59:10;;;;;;;;;;;1.60;99.90;;;;;;5066633;28;20481;-72
2023/01/17 02:01:40;;;;;;;;;;;1.60;99.90;;;;;;5070744;28;19924;-71
2023/01/17 02:04:09;;;;;;;;;;;1.60;99.90;;;;;;5069397;28;20332;-71
2023/01/17 02:07:05;;;;;;;;;;;1.50;99.90;;;;;;5075025;28;19931;-72
2023/01/17 02:09:34;;;;;;;;;;;1.50;99.90;;;;;;5069785;28;19924;-72
2023/01/17 02:12:03;;;;;;;;;;;1.50;99.90;;;;;;5069331;28;19924;-73
2023/01/17 02:14:36;;;;;;;;;;;1.40;99.90;;;;;;5096566;28;20399;-72
2023/01/17 02:17:12;;;;;;;;;;;1.40;99.90;;;;;;5104544;28;19974;-72
2023/01/17 02:19:49;;;;;;;;;;;1.40;99.90;;;;;;5085416;28;20356;-72
2023/01/17 02:22:34;;;;;;;;;;;1.40;99.90;;;;;;5089151;27;20305;-71
2023/01/17 02:25:36;;;;;;;;;;;1.40;99.90;;;;;;5081012;28;19924;-71
2023/01/17 02:28:23;;;;;;;;;;;1.40;99.90;;;;;;5040901;28;20148;-72
2023/01/17 02:30:59;;;;;;;;;;;1.40;99.90;;;;;;5075059;28;20286;-72
2023/01/17 02:33:40;;;;;;;;;;;1.40;99.90;;;;;;5083738;28;20365;-73
2023/01/17 02:36:18;;;;;;;;;;;1.40;99.90;;;;;;5089276;28;20322;-71
2023/01/17 02:39:08;;;;;;;;;;;1.40;99.90;;;;;;5096553;28;20482;-71
2023/01/17 02:41:42;;;;;;;;;;;1.30;99.90;;;;;;5073775;28;20302;-71
2023/01/17 02:44:15;;;;;;;;;;;1.40;99.90;;;;;;5070253;28;19924;-73
2023/01/17 02:46:53;;;;;;;;;;;1.30;99.90;;;;;;5072269;28;20374;-71
2023/01/17 02:49:24;;;;;;;;;;;1.30;99.90;;;;;;5066938;28;19924;-72
2023/01/17 02:51:59;;;;;;;;;;;1.30;99.90;;;;;;5070420;28;19928;-72
2023/01/17 02:54:43;;;;;;;;;;;1.30;99.90;;;;;;5070932;28;20447;-71
2023/01/17 02:57:11;;;;;;;;;;;1.30;99.90;;;;;;5062301;28;19928;-71
2023/01/17 02:59:50;;;;;;;;;;;1.30;99.90;;;;;;5088562;28;20299;-71
2023/01/17 03:02:42;;;;;;;;;;;1.30;99.90;;;;;;5095820;28;19927;-71
2023/01/17 03:05:30;;;;;;;;;;;1.30;99.90;;;;;;5061533;28;19935;-72
2023/01/17 03:08:01;;;;;;;;;;;1.30;99.90;;;;;;5083148;28;20387;-71
2023/01/17 03:10:32;;;;;;;;;;;1.30;99.90;;;;;;5086465;28;20027;-72
2023/01/17 03:13:01;;;;;;;;;;;1.20;99.90;;;;;;5087121;28;19924;-73
2023/01/17 03:15:30;;;;;;;;;;;1.20;99.90;;;;;;5087397;28;20390;-72
2023/01/17 03:18:03;;;;;;;;;;;1.20;99.90;;;;;;5072574;28;19931;-72
2023/01/17 03:20:32;;;;;;;;;;;1.20;99.90;;;;;;5070753;28;20034;-72
2023/01/17 03:23:01;;;;;;;;;;;1.20;99.90;;;;;;5091563;28;19923;-72
2023/01/17 03:25:30;;;;;;;;;;;1.30;99.90;;;;;;5087044;28;20038;-73
2023/01/17 03:27:59;;;;;;;;;;;1.30;99.90;;;;;;5074720;28;19968;-72
2023/01/17 03:30:28;;;;;;;;;;;1.30;99.90;;;;;;5074769;28;19928;-73
2023/01/17 03:33:03;;;;;;;;;;;1.30;99.90;;;;;;5071486;28;20411;-72
2023/01/17 03:35:32;;;;;;;;;;;1.40;99.90;;;;;;5072127;28;20445;-72
2023/01/17 03:38:00;;;;;;;;;;;1.40;99.90;;;;;;5075276;28;19928;-71
2023/01/17 03:40:29;;;;;;;;;;;1.40;99.90;;;;;;5073597;28;19924;-72
2023/01/17 03:42:59;;;;;;;;;;;1.40;99.90;;;;;;5066424;28;20386;-72
2023/01/17 03:45:28;;;;;;;;;;;1.40;99.90;;;;;;5088012;28;20645;-72
2023/01/17 03:47:57;;;;;;;;;;;1.40;99.90;;;;;;5066527;28;19935;-71
2023/01/17 03:50:27;;;;;;;;;;;1.40;99.90;;;;;;5066063;28;19989;-72
2023/01/17 03:52:56;;;;;;;;;;;1.50;99.90;;;;;;5100625;28;19927;-71
2023/01/17 03:55:25;;;;;;;;;;;1.50;99.90;;;;;;5068469;28;20018;-71
2023/01/17 03:57:54;;;;;;;;;;;1.50;99.90;;;;;;5074811;28;19924;-73
2023/01/17 04:00:23;;;;;;;;;;;1.50;99.90;;;;;;5071620;28;19928;-72
2023/01/17 04:02:57;;;;;;;;;;;1.60;99.90;;;;;;5087063;28;19928;-72
2023/01/17 04:05:26;;;;;;;;;;;1.50;99.90;;;;;;5077061;28;20381;-72
2023/01/17 04:07:55;;;;;;;;;;;1.50;99.90;;;;;;5073401;28;20014;-72
2023/01/17 04:10:25;;;;;;;;;;;1.50;99.90;;;;;;5083198;28;20391;-71
2023/01/17 04:12:54;;;;;;;;;;;1.50;99.90;;;;;;5068853;28;19928;-73
2023/01/17 04:15:23;;;;;;;;;;;1.50;99.90;;;;;;5085043;28;20215;-73
2023/01/17 04:18:19;;;;;;;;;;;1.50;99.90;;;;;;5090615;28;20032;-72
2023/01/17 04:20:49;;;;;;;;;;;1.50;99.90;;;;;;5113399;28;19951;-72
2023/01/17 04:23:22;;;;;;;;;;;1.50;99.90;;;;;;5087511;28;19924;-72
2023/01/17 04:25:53;;;;;;;;;;;1.50;99.90;;;;;;5088243;28;19984;-71
2023/01/17 04:28:21;;;;;;;;;;;1.50;99.90;;;;;;5070221;28;19928;-72
2023/01/17 04:30:49;;;;;;;;;;;1.50;99.90;;;;;;5059823;28;19931;-72
2023/01/17 04:33:21;;;;;;;;;;;1.50;99.90;;;;;;5067159;28;19924;-73
2023/01/17 04:35:50;;;;;;;;;;;1.40;99.90;;;;;;5102524;28;20507;-73
2023/01/17 04:38:22;;;;;;;;;;;1.40;99.90;;;;;;5093034;28;19955;-72
2023/01/17 04:40:52;;;;;;;;;;;1.30;99.90;;;;;;5075717;28;19931;-72
2023/01/17 04:43:22;;;;;;;;;;;1.30;99.90;;;;;;5089743;28;20522;-71
2023/01/17 04:45:55;;;;;;;;;;;1.20;99.90;;;;;;5098847;28;19974;-72
2023/01/17 04:48:26;;;;;;;;;;;1.20;99.90;;;;;;5086415;28;19947;-72
2023/01/17 04:50:58;;;;;;;;;;;1.20;99.90;;;;;;5082724;28;19974;-73
2023/01/17 04:53:32;;;;;;;;;;;1.10;99.90;;;;;;5072024;28;20282;-74
2023/01/17 04:56:02;;;;;;;;;;;1.10;99.90;;;;;;5072440;28;19928;-72
2023/01/17 04:58:34;;;;;;;;;;;1.10;99.90;;;;;;5064727;28;19935;-74
2023/01/17 05:01:08;;;;;;;;;;;1.00;99.90;;;;;;5057852;28;19962;-73
2023/01/17 05:03:46;;;;;;;;;;;1.00;99.90;;;;;;5084715;28;19951;-74
2023/01/17 05:06:19;;;;;;;;;;;1.00;99.90;;;;;;5092986;28;20405;-73
2023/01/17 05:08:48;;;;;;;;;;;1.00;99.90;;;;;;5081629;28;20022;-72
2023/01/17 05:11:22;;;;;;;;;;;0.90;99.90;;;;;;5090319;28;19925;-73
2023/01/17 05:13:54;;;;;;;;;;;0.90;99.90;;;;;;5099602;28;19927;-75
2023/01/17 05:16:23;;;;;;;;;;;0.80;99.90;;;;;;5072799;28;20304;-74
2023/01/17 05:18:53;;;;;;;;;;;0.80;99.90;;;;;;5084113;28;19924;-73
2023/01/17 05:21:23;;;;;;;;;;;0.70;99.90;;;;;;5084398;28;19924;-73
2023/01/17 05:23:52;;;;;;;;;;;0.70;99.90;;;;;;5083980;28;19934;-73
2023/01/17 05:26:22;;;;;;;;;;;0.70;99.90;;;;;;5067215;28;19924;-74
2023/01/17 05:28:50;;;;;;;;;;;0.70;99.90;;;;;;5068231;28;20328;-73
2023/01/17 05:31:20;;;;;;;;;;;0.70;99.90;;;;;;5075609;28;19991;-73
2023/01/17 05:34:16;;;;;;;;;;;0.60;99.90;;;;;;5077087;28;19928;-73
2023/01/17 05:36:45;;;;;;;;;;;0.60;99.90;;;;;;5090901;28;19924;-73
2023/01/17 05:39:14;;;;;;;;;;;0.70;99.90;;;;;;5073818;28;20034;-74
2023/01/17 05:41:44;;;;;;;;;;;0.60;99.90;;;;;;5090091;28;19931;-74
2023/01/17 05:44:14;;;;;;;;;;;0.60;99.90;;;;;;5073435;28;19924;-74
2023/01/17 05:46:43;;;;;;;;;;;0.60;99.90;;;;;;5079209;28;19930;-74
2023/01/17 05:49:19;;;;;;;;;;;0.50;99.90;;;;;;5080633;28;19927;-74
2023/01/17 05:52:00;;;;;;;;;;;0.50;99.90;;;;;;5104112;27;20891;-77
2023/01/17 05:54:28;;;;;;;;;;;0.50;99.90;;;;;;5059341;28;19927;-73
2023/01/17 05:57:22;;;;;;;;;;;0.50;99.90;;;;;;5087008;28;19924;-73
2023/01/17 06:00:00;;;;;;;;;;;0.50;99.90;;;;;;5080706;28;19932;-71
2023/01/17 06:02:32;;;;;;;;;;;0.50;99.90;;;;;;5104646;28;20424;-74
2023/01/17 06:05:26;;;;;;;;;;;0.40;99.90;;;;;;5095248;28;19931;-74
2023/01/17 06:07:56;;;;;;;;;;;0.50;99.90;;;;;;5109236;27;19924;-73
2023/01/17 06:10:26;;;;;;;;;;;0.40;99.90;;;;;;5110658;27;19934;-74
2023/01/17 06:13:01;;;;;;;;;;;0.40;99.90;;;;;;5070267;28;19970;-74
2023/01/17 06:15:32;;;;;;;;;;;0.40;99.90;;;;;;5084600;28;19924;-73
2023/01/17 06:21:16;;;;;;;;;;;0.30;99.90;;;;;;5106297;28;20018;-73
2023/01/17 06:23:47;;;;;;;;;;;0.20;99.90;;;;;;5066995;28;19928;-73
2023/01/17 06:26:18;;;;;;;;;;;0.10;99.90;;;;;;5089211;28;20069;-74
2023/01/17 06:28:48;;;;;;;;;;;0.00;99.90;;;;;;5073293;28;19928;-72
2023/01/17 06:31:17;;;;;;;;;;;0.00;99.90;;;;;;5068276;28;19928;-74
2023/01/17 06:33:47;;;;;;;;;;;-0.10;99.90;;;;;;5075316;28;20341;-73
2023/01/17 06:36:19;;;;;;;;;;;-0.10;99.90;;;;;;5075160;28;19932;-73
2023/01/17 06:38:51;;;;;;;;;;;-0.10;99.90;;;;;;5060334;28;19924;-71
2023/01/17 06:41:22;;;;;;;;;;;-0.10;99.90;;;;;;5089545;28;19969;-73
2023/01/17 06:43:54;;;;;;;;;;;-0.10;99.90;;;;;;5077664;28;19924;-73
2023/01/17 06:46:24;;;;;;;;;;;-0.10;99.90;;;;;;5078141;28;19980;-74
2023/01/17 06:48:54;;;;;;;;;;;-0.10;99.90;;;;;;5093953;27;19924;-71
2023/01/17 06:51:26;;;;;;;;;;;-0.10;99.90;;;;;;5072022;28;19928;-70
2023/01/17 06:53:55;;;;;;;;;;;0.10;99.90;;;;;;5069709;27;19931;-73
2023/01/17 06:56:31;;;;;;;;;;;0.00;99.90;;;;;;5098562;27;20007;-74
2023/01/17 06:59:00;;;;;;;;;;;-0.10;99.90;;;;;;5087466;28;20136;-73
2023/01/17 07:01:28;;;;;;;;;;;0.00;99.90;;;;;;5105502;28;19969;-74
2023/01/17 07:03:57;;;;;;;;;;;-0.10;99.90;;;;;;5090026;28;19923;-72
2023/01/17 07:06:30;;;;;;;;;;;-0.10;99.90;;;;;;5077253;28;20046;-74
2023/01/17 07:09:11;;;;;;;;;;;-0.10;99.90;;;;;;5075019;28;19928;-74
2023/01/17 07:12:00;;;;;;;;;;;0.00;99.90;;;;;;5094187;28;19960;-74
2023/01/17 07:14:36;;;;;;;;;;;0.00;99.90;;;;;;5124700;28;19943;-72
2023/01/17 07:17:07;;;;;;;;;;;0.00;99.90;;;;;;5105589;28;19932;-73
2023/01/17 07:19:36;;;;;;;;;;;0.00;99.90;;;;;;5085474;28;19955;-72
2023/01/17 07:22:09;;;;;;;;;;;0.00;99.90;;;;;;5076417;28;20295;-74
2023/01/17 07:24:38;;;;;;;;;;;0.00;99.90;;;;;;5075618;28;19924;-74
2023/01/17 07:27:10;;;;;;;;;;;0.10;99.90;;;;;;5083645;28;20436;-74
2023/01/17 07:29:39;;;;;;;;;;;0.00;99.90;;;;;;5077170;28;19967;-74
2023/01/17 07:32:34;;;;;;;;;;;0.00;99.90;;;;;;5091187;28;19992;-74
2023/01/17 07:35:06;;;;;;;;;;;0.00;99.90;;;;;;5078590;28;19928;-73
2023/01/17 07:37:36;;;;;;;;;;;0.00;99.90;;;;;;5085451;28;20368;-72
2023/01/17 07:40:04;;;;;;;;;;;-0.10;99.90;;;;;;5072715;28;19971;-72
2023/01/17 07:42:36;;;;;;;;;;;-0.20;99.90;;;;;;5081574;28;20475;-74
2023/01/17 07:45:09;;;;;;;;;;;-0.20;99.90;;;;;;5077111;27;19931;-74
2023/01/17 07:47:39;;;;;;;;;;;-0.20;99.90;;;;;;5069586;28;19958;-74
2023/01/17 07:50:09;;;;;;;;;;;-0.20;99.90;;;;;;5074689;28;19981;-73
2023/01/17 07:52:39;;;;;;;;;;;-0.10;99.90;;;;;;5094143;28;19959;-72
2023/01/17 07:55:22;;;;;;;;;;;-0.10;99.90;;;;;;5099490;28;19927;-74
2023/01/17 07:57:51;;;;;;;;;;;0.00;99.90;;;;;;5073755;28;19923;-73
2023/01/17 08:03:18;;;;;;;;;;;-0.10;99.90;;;;;;5085920;28;19924;-74
2023/01/17 08:05:54;;;;;;;;;;;0.00;99.90;;;;;;5079917;28;19937;-74
2023/01/17 08:08:24;;;;;;;;;;;0.00;99.90;;;;;;5103196;27;19928;-74
2023/01/17 08:10:56;;;;;;;;;;;0.00;99.90;;;;;;5067591;28;20030;-74
2023/01/17 08:13:28;;;;;;;;;;;0.00;99.90;;;;;;5094097;28;19923;-74
2023/01/17 08:16:01;;;;;;;;;;;0.00;99.90;;;;;;5074833;28;20675;-74
2023/01/17 08:18:31;;;;;;;;;;;0.00;99.90;;;;;;5053115;27;19927;-72
2023/01/17 08:21:12;;;;;;;;;;;0.00;99.90;;;;;;5073719;28;19964;-73
2023/01/17 08:23:43;;;;;;;;;;;0.00;99.90;;;;;;5087897;28;19931;-73
2023/01/17 08:26:25;;;;;;;;;;;0.10;99.90;;;;;;5077898;28;19924;-74
2023/01/17 08:28:59;;;;;;;;;;;0.20;99.90;;;;;;5075039;28;19983;-74
2023/01/17 08:31:29;;;;;;;;;;;0.20;99.90;;;;;;5085901;28;19977;-73
2023/01/17 08:34:24;;;;;;;;;;;0.30;99.90;;;;;;5098313;28;19912;-73
2023/01/17 08:36:55;;;;;;;;;;;0.30;99.90;;;;;;5077073;28;20388;-74
2023/01/17 08:42:20;;;;;;;;;;;0.50;99.90;;;;;;5095554;28;19974;-73
2023/01/17 08:44:50;;;;;;;;;;;0.50;99.90;;;;;;5075351;28;20384;-73
2023/01/17 08:47:22;;;;;;;;;;;0.60;99.90;;;;;;5077870;27;20513;-74
2023/01/17 08:50:09;;;;;;;;;;;0.60;99.90;;;;;;5098779;28;19937;-74
2023/01/17 08:52:46;;;;;;;;;;;0.70;99.90;;;;;;5083437;28;19923;-73
2023/01/17 08:55:16;;;;;;;;;;;0.70;99.90;;;;;;5070536;28;20378;-72
2023/01/17 08:57:49;;;;;;;;;;;0.80;99.90;;;;;;5101359;28;20354;-73
2023/01/17 09:00:38;;;;;;;;;;;0.90;99.90;;;;;;5067426;28;19950;-73
2023/01/17 09:03:12;;;;;;;;;;;1.00;99.90;;;;;;5073823;28;19931;-73
2023/01/17 09:05:44;;;;;;;;;;;1.00;99.90;;;;;;5070798;28;19935;-73
2023/01/17 09:09:01;;;;;;;;;;;1.10;99.90;;;;;;5066762;28;19923;-72
2023/01/17 09:11:33;;;;;;;;;;;1.20;99.90;;;;;;5089751;28;20306;-74
2023/01/17 09:14:03;;;;;;;;;;;1.30;99.90;;;;;;5073764;28;19973;-72
2023/01/17 09:16:32;;;;;;;;;;;1.30;99.90;;;;;;5077205;28;19953;-74
2023/01/17 09:19:01;;;;;;;;;;;1.20;99.90;;;;;;5073516;28;19951;-73
2023/01/17 09:21:31;;;;;;;;;;;1.20;99.90;;;;;;5071641;28;20630;-74
2023/01/17 09:23:59;;;;;;;;;;;1.20;99.90;;;;;;5064681;28;19955;-73
2023/01/17 09:26:30;;;;;;;;;;;1.20;99.90;;;;;;5064045;28;19924;-74
2023/01/17 09:29:31;;;;;;;;;;;1.20;99.90;;;;;;5088462;28;19930;-74
2023/01/17 09:32:10;;;;;;;;;;;1.30;99.90;;;;;;5090860;28;20317;-74
2023/01/17 09:34:48;;;;;;;;;;;1.30;99.90;;;;;;5066660;28;20065;-74
2023/01/17 09:37:23;;;;;;;;;;;1.40;99.90;;;;;;5074857;28;20274;-73
2023/01/17 09:39:53;;;;;;;;;;;1.40;99.90;;;;;;5091084;28;19924;-73
2023/01/17 09:42:34;;;;;;;;;;;1.50;99.90;;;;;;5101583;28;20039;-74
2023/01/17 09:45:12;;;;;;;;;;;1.60;99.90;;;;;;5084669;28;20499;-73
2023/01/17 09:47:53;;;;;;;;;;;1.60;99.90;;;;;;5090859;28;19932;-73
2023/01/17 09:50:49;;;;;;;;;;;1.70;99.90;;;;;;5091771;28;20329;-74
2023/01/17 09:53:21;;;;;;;;;;;1.70;99.90;;;;;;5079380;28;19931;-74
2023/01/17 09:55:56;;;;;;;;;;;1.80;99.90;;;;;;5081898;28;19928;-72
2023/01/17 09:58:33;;;;;;;;;;;1.90;99.90;;;;;;5072467;28;20607;-74
2023/01/17 10:01:14;;;;;;;;;;;2.00;99.90;;;;;;5087980;28;20468;-74
2023/01/17 10:04:05;;;;;;;;;;;2.00;99.90;;;;;;5077134;28;19924;-74
2023/01/17 10:06:43;;;;;;;;;;;2.10;99.90;;;;;;5095323;28;19923;-73
2023/01/17 10:09:19;;;;;;;;;;;2.20;99.90;;;;;;5109327;28;20159;-72
2023/01/17 10:12:06;;;;;;;;;;;2.30;99.90;;;;;;5075724;28;20022;-74
2023/01/17 10:14:44;;;;;;;;;;;2.40;99.90;;;;;;5095860;28;19931;-74
2023/01/17 10:17:35;;;;;;;;;;;2.50;99.90;;;;;;5078683;28;19928;-74
2023/01/17 10:20:15;;;;;;;;;;;2.50;99.90;;;;;;5067163;28;20014;-74
2023/01/17 10:23:02;;;;;;;;;;;2.60;99.90;;;;;;5070344;28;20390;-74
2023/01/17 10:25:32;;;;;;;;;;;2.70;99.90;;;;;;5081657;28;20402;-74
2023/01/17 10:28:04;;;;;;;;;;;2.70;99.90;;;;;;5094150;27;20382;-73
2023/01/17 10:30:39;;;;;;;;;;;2.70;99.90;;;;;;5081711;28;20582;-73
2023/01/17 10:33:36;;;;;;;;;;;2.70;99.90;;;;;;5074966;28;19931;-73
2023/01/17 10:36:09;;;;;;;;;;;2.70;99.90;;;;;;5084582;28;20444;-74
2023/01/17 10:38:45;;;;;;;;;;;2.70;99.90;;;;;;5087225;28;19924;-74
2023/01/17 10:41:17;;;;;;;;;;;2.70;99.90;;;;;;5061802;28;19931;-74
2023/01/17 10:44:05;;;;;;;;;;;2.80;99.90;;;;;;5103787;28;19924;-72
2023/01/17 10:46:46;;;;;;;;;;;2.80;99.90;;;;;;5104918;27;19928;-73
2023/01/17 10:49:16;;;;;;;;;;;2.80;99.90;;;;;;5080981;28;19928;-74
2023/01/17 10:51:58;;;;;;;;;;;2.80;99.90;;;;;;5092224;28;19931;-73
2023/01/17 10:54:40;;;;;;;;;;;2.90;99.90;;;;;;5080678;27;19924;-73
2023/01/17 10:58:19;;;;;;;;;;;2.90;99.90;;;;;;5104626;28;20009;-73
2023/01/17 11:01:16;;;;;;;;;;;2.90;99.90;;;;;;5104594;28;19953;-73
2023/01/17 11:03:49;;;;;;;;;;;3.00;99.90;;;;;;5104711;28;20078;-73
2023/01/17 11:06:21;;;;;;;;;;;3.00;99.90;;;;;;5091838;28;19924;-73
2023/01/17 11:08:55;;;;;;;;;;;3.00;99.90;;;;;;5100457;28;20009;-73
2023/01/17 11:11:48;;;;;;;;;;;3.00;99.90;;;;;;5075487;28;20306;-73
2023/01/17 11:14:29;;;;;;;;;;;3.00;99.90;;;;;;5094048;28;19932;-73
2023/01/17 11:17:26;;;;;;;;;;;3.10;99.90;;;;;;5044811;28;19918;-72
2023/01/17 11:20:05;;;;;;;;;;;3.10;99.90;;;;;;5076303;28;20014;-72
2023/01/17 11:22:36;;;;;;;;;;;3.10;99.90;;;;;;5080476;28;19932;-73
2023/01/17 11:25:07;;;;;;;;;;;3.20;99.90;;;;;;5096466;28;19964;-73
2023/01/17 11:27:40;;;;;;;;;;;3.20;99.90;;;;;;5087262;28;20390;-73
2023/01/17 11:30:31;;;;;;;;;;;3.30;99.90;;;;;;5071910;28;20022;-73
2023/01/17 11:33:07;;;;;;;;;;;3.30;99.90;;;;;;5104317;28;19936;-73
2023/01/17 11:38:54;;;;;;;;;;;3.30;99.90;;;;;;5101282;28;19924;-73
2023/01/17 11:41:23;;;;;;;;;;;3.40;99.90;;;;;;5066477;28;19924;-73
2023/01/17 11:43:54;;;;;;;;;;;3.40;99.90;;;;;;5074251;27;19932;-73
2023/01/17 11:46:27;;;;;;;;;;;3.40;99.90;;;;;;5090830;28;19923;-73
2023/01/17 11:49:01;;;;;;;;;;;3.40;99.90;;;;;;5086883;28;19928;-73
2023/01/17 11:51:32;;;;;;;;;;;3.40;99.90;;;;;;5078912;28;19931;-73
2023/01/17 11:54:10;;;;;;;;;;;3.50;99.90;;;;;;5074093;28;19932;-72
2023/01/17 11:56:43;;;;;;;;;;;3.50;99.90;;;;;;5077764;28;19927;-72
2023/01/17 11:59:16;;;;;;;;;;;3.50;99.90;;;;;;5090825;28;19974;-72
2023/01/17 12:01:51;;;;;;;;;;;3.60;99.90;;;;;;5097199;28;19978;-72
2023/01/17 12:04:28;;;;;;;;;;;3.60;99.90;;;;;;5081652;28;19931;-72
2023/01/17 12:07:29;;;;;;;;;;;3.70;99.90;;;;;;5084807;28;19924;-72
2023/01/17 12:10:05;;;;;;;;;;;3.70;99.90;;;;;;5079949;28;19934;-72
2023/01/17 12:15:50;;;;;;;;;;;3.70;99.90;;;;;;5085594;28;19923;-72
2023/01/17 12:18:58;;;;;;;;;;;3.70;99.90;;;;;;5090324;28;19934;-72
2023/01/17 12:21:36;;;;;;;;;;;3.70;99.90;;;;;;5007621;28;19983;-72
2023/01/17 12:24:32;;;;;;;;;;;3.70;99.90;;;;;;5026288;28;19932;-72
2023/01/17 12:27:07;;;;;;;;;;;3.70;99.90;;;;;;5074594;27;19930;-72
2023/01/17 12:30:15;;;;;;;;;;;3.80;99.90;;;;;;5068361;28;19924;-72
2023/01/17 12:32:59;;;;;;;;;;;3.80;99.90;;;;;;5067103;28;19989;-72
2023/01/17 12:35:39;;;;;;;;;;;3.80;99.90;;;;;;5095063;28;19932;-72
2023/01/17 12:38:17;;;;;;;;;;;3.80;99.90;;;;;;5074609;28;20149;-72
2023/01/17 12:40:57;;;;;;;;;;;3.80;99.90;;;;;;5078151;28;19939;-72
2023/01/17 12:43:32;;;;;;;;;;;3.80;99.90;;;;;;5098732;27;20358;-72
2023/01/17 12:46:03;;;;;;;;;;;4.00;99.90;;;;;;5070936;28;19980;-72
2023/01/17 12:51:29;;;;;;;;;;;4.20;99.90;;;;;;5085325;28;19924;-72
2023/01/17 12:54:07;;;;;;;;;;;4.20;99.90;;;;;;5099544;28;19967;-72
2023/01/17 12:57:01;;;;;;;;;;;4.10;99.90;;;;;;5091122;28;19982;-72
2023/01/17 12:59:35;;;;;;;;;;;4.10;99.90;;;;;;5082442;28;19936;-71
2023/01/17 13:05:43;;;;;;;;;;;4.00;99.90;;;;;;5070686;28;19924;-72
2023/01/17 13:08:26;;;;;;;;;;;3.90;99.90;;;;;;5092018;28;19951;-72
2023/01/17 13:11:42;;;;;;;;;;;3.90;99.90;;;;;;5072472;28;20019;-72
2023/01/17 13:14:21;;;;;;;;;;;3.90;99.90;;;;;;5087963;28;19934;-71
2023/01/17 13:17:02;;;;;;;;;;;3.90;99.90;;;;;;5066771;28;19928;-72
2023/01/17 13:19:37;;;;;;;;;;;4.00;99.90;;;;;;5083735;28;20337;-72
2023/01/17 13:22:08;;;;;;;;;;;3.90;99.90;;;;;;5067939;28;20130;-72
2023/01/17 13:24:40;;;;;;;;;;;4.00;99.90;;;;;;5070850;28;20055;-72
2023/01/17 13:27:18;;;;;;;;;;;3.90;99.90;;;;;;5100932;28;20038;-72
2023/01/17 13:29:55;;;;;;;;;;;3.90;99.90;;;;;;5060043;28;19935;-72
2023/01/17 13:32:42;;;;;;;;;;;3.90;99.90;;;;;;5071218;28;19953;-72
2023/01/17 13:35:32;;;;;;;;;;;3.90;99.90;;;;;;5073969;28;19930;-72
2023/01/17 13:38:21;;;;;;;;;;;3.80;99.90;;;;;;5100434;28;19932;-72
2023/01/17 13:41:13;;;;;;;;;;;3.80;99.90;;;;;;5090172;28;19924;-72
2023/01/17 13:47:02;;;;;;;;;;;3.90;99.90;;;;;;5088034;28;19924;-72
2023/01/17 13:49:55;;;;;;;;;;;4.00;99.90;;;;;;5090734;28;19938;-72
2023/01/17 13:52:31;;;;;;;;;;;3.90;99.90;;;;;;5073038;28;19950;-72
2023/01/17 13:55:07;;;;;;;;;;;3.80;99.90;;;;;;5095753;28;19928;-72
2023/01/17 13:57:49;;;;;;;;;;;3.80;99.90;;;;;;5094031;28;20010;-72
2023/01/17 14:00:21;;;;;;;;;;;3.80;99.90;;;;;;5087750;28;20019;-72
2023/01/17 14:02:50;;;;;;;;;;;3.80;99.90;;;;;;5105665;28;19923;-71
2023/01/17 14:05:33;;;;;;;;;;;3.80;99.90;;;;;;5102041;28;20112;-72
2023/01/17 14:08:37;;;;;;;;;;;3.80;99.90;;;;;;5099098;28;19924;-72
2023/01/17 14:11:15;;;;;;;;;;;3.70;99.90;;;;;;5091336;28;19932;-72
2023/01/17 14:13:44;;;;;;;;;;;3.70;99.90;;;;;;5096105;28;19928;-72
2023/01/17 14:16:41;;;;;;;;;;;3.60;99.90;;;;;;5078397;28;20014;-71
2023/01/17 14:19:35;;;;;;;;;;;3.60;99.90;;;;;;5076183;27;19924;-72
2023/01/17 14:22:22;;;;;;;;;;;3.60;99.90;;;;;;5069266;28;19977;-72
2023/01/17 14:25:08;;;;;;;;;;;3.60;99.90;;;;;;5071879;28;20018;-72
2023/01/17 14:27:41;;;;;;;;;;;3.50;99.90;;;;;;5090251;28;19966;-71
2023/01/17 14:30:17;;;;;;;;;;;3.50;99.90;;;;;;5087664;28;19924;-72
2023/01/17 14:33:04;;;;;;;;;;;3.50;99.90;;;;;;5075885;28;19986;-72
2023/01/17 14:35:54;;;;;;;;;;;3.40;99.90;;;;;;5088556;28;19928;-72
2023/01/17 14:38:32;;;;;;;;;;;3.40;99.90;;;;;;5086075;28;20024;-72
2023/01/17 14:41:13;;;;;;;;;;;3.40;99.90;;;;;;5074909;28;20002;-72
2023/01/17 14:43:46;;;;;;;;;;;3.30;99.90;;;;;;5087926;28;20416;-72
2023/01/17 14:46:31;;;;;;;;;;;3.30;99.90;;;;;;5070672;28;19924;-72
2023/01/17 14:49:25;;;;;;;;;;;3.30;99.90;;;;;;5075202;28;19931;-72
2023/01/17 14:52:05;;;;;;;;;;;3.30;99.90;;;;;;5083612;27;19976;-72
2023/01/17 14:54:36;;;;;;;;;;;3.30;99.90;;;;;;5091562;28;20288;-72
2023/01/17 14:57:27;;;;;;;;;;;3.30;99.90;;;;;;5084173;28;20298;-72
2023/01/17 15:00:12;;;;;;;;;;;3.30;99.90;;;;;;5084265;27;19981;-72
2023/01/17 15:02:45;;;;;;;;;;;3.20;99.90;;;;;;5086770;28;20006;-72
2023/01/17 15:05:22;;;;;;;;;;;3.20;99.90;;;;;;5094411;28;19955;-72
2023/01/17 15:07:55;;;;;;;;;;;3.20;99.90;;;;;;5100868;28;19950;-72
2023/01/17 15:11:04;;;;;;;;;;;3.20;99.90;;;;;;5099526;28;19912;-72
2023/01/17 15:13:48;;;;;;;;;;;3.10;99.90;;;;;;5079474;28;19970;-72
2023/01/17 15:16:25;;;;;;;;;;;3.10;99.90;;;;;;5092609;28;20011;-72
2023/01/17 15:19:12;;;;;;;;;;;3.20;99.90;;;;;;5093586;28;19931;-72
2023/01/17 15:21:42;;;;;;;;;;;3.50;99.90;;;;;;5060914;28;19955;-72
2023/01/17 15:24:24;;;;;;;;;;;3.50;99.90;;;;;;5102414;28;19923;-72
2023/01/17 15:26:54;;;;;;;;;;;3.40;99.90;;;;;;5094736;28;20011;-72
2023/01/17 15:29:38;;;;;;;;;;;3.30;99.90;;;;;;5092203;28;19931;-72
2023/01/17 15:35:17;;;;;;;;;;;3.20;99.90;;;;;;5083910;28;20004;-72
2023/01/17 15:37:54;;;;;;;;;;;3.10;99.90;;;;;;5086070;28;19923;-72
2023/01/17 15:40:45;;;;;;;;;;;3.00;99.90;;;;;;5092701;28;19935;-72
2023/01/17 15:43:22;;;;;;;;;;;3.00;99.90;;;;;;5073637;28;19923;-72
2023/01/17 15:45:57;;;;;;;;;;;2.90;99.90;;;;;;5084680;28;19928;-72
2023/01/17 15:48:35;;;;;;;;;;;2.90;99.90;;;;;;5078173;28;19931;-72
2023/01/17 15:51:13;;;;;;;;;;;2.90;99.90;;;;;;5088122;28;19963;-72
2023/01/17 15:53:49;;;;;;;;;;;2.90;99.90;;;;;;5080093;28;19928;-72
2023/01/17 15:56:31;;;;;;;;;;;2.90;99.90;;;;;;5081370;28;19924;-72
2023/01/17 15:59:25;;;;;;;;;;;2.90;99.90;;;;;;5094333;28;19942;-71
2023/01/17 16:01:58;;;;;;;;;;;2.80;99.90;;;;;;5071638;28;20356;-72
2023/01/17 16:04:33;;;;;;;;;;;2.80;99.90;;;;;;5087724;28;20457;-72
2023/01/17 16:07:21;;;;;;;;;;;2.80;99.90;;;;;;5086996;28;19928;-72
2023/01/17 16:09:53;;;;;;;;;;;2.80;99.90;;;;;;5059816;28;20337;-72
2023/01/17 16:12:25;;;;;;;;;;;2.80;99.90;;;;;;5069381;28;20030;-72
2023/01/17 16:15:19;;;;;;;;;;;2.70;99.90;;;;;;5080328;28;20632;-72
2023/01/17 16:17:54;;;;;;;;;;;2.70;99.90;;;;;;5070622;28;19928;-72
2023/01/17 16:21:13;;;;;;;;;;;2.70;99.90;;;;;;5090516;28;19935;-72
2023/01/17 16:23:43;;;;;;;;;;;2.70;99.90;;;;;;5072982;28;20330;-71
2023/01/17 16:26:12;;;;;;;;;;;2.70;99.90;;;;;;5067403;28;20022;-72
2023/01/17 16:28:41;;;;;;;;;;;2.70;99.90;;;;;;5073911;28;19932;-72
2023/01/17 16:31:10;;;;;;;;;;;2.70;99.90;;;;;;5084861;28;19946;-72
2023/01/17 16:33:41;;;;;;;;;;;2.70;99.90;;;;;;5074158;28;19939;-72
2023/01/17 16:36:19;;;;;;;;;;;2.60;99.90;;;;;;5093014;28;19938;-72
2023/01/17 16:38:52;;;;;;;;;;;2.60;99.90;;;;;;5076983;28;20443;-72
2023/01/17 16:41:24;;;;;;;;;;;2.60;99.90;;;;;;5081281;28;19932;-71
2023/01/17 16:44:05;;;;;;;;;;;2.50;99.90;;;;;;5068713;28;19924;-72
2023/01/17 16:46:41;;;;;;;;;;;2.50;99.90;;;;;;5066041;28;20535;-72
2023/01/17 16:49:11;;;;;;;;;;;2.50;99.90;;;;;;5075636;28;20440;-72
2023/01/17 16:51:42;;;;;;;;;;;2.40;99.90;;;;;;5082170;27;20023;-71
2023/01/17 16:54:39;;;;;;;;;;;2.50;99.90;;;;;;5075053;28;19923;-72
2023/01/17 16:57:07;;;;;;;;;;;2.40;99.90;;;;;;5069794;28;19931;-73
2023/01/17 16:59:37;;;;;;;;;;;2.40;99.90;;;;;;5077264;28;20681;-73
2023/01/17 17:02:17;;;;;;;;;;;2.40;99.90;;;;;;5088108;28;20020;-73
2023/01/17 17:05:04;;;;;;;;;;;2.40;99.90;;;;;;5094239;28;19978;-73
2023/01/17 17:08:02;;;;;;;;;;;2.40;99.90;;;;;;5035679;28;19955;-74
2023/01/17 17:10:30;;;;;;;;;;;2.40;99.90;;;;;;5075266;28;19927;-73
2023/01/17 17:13:00;;;;;;;;;;;2.40;99.90;;;;;;5084055;28;20994;-73
2023/01/17 17:15:32;;;;;;;;;;;2.40;99.90;;;;;;5089111;28;20015;-74
2023/01/17 17:18:03;;;;;;;;;;;2.40;99.90;;;;;;5072373;28;19928;-73